Weather at Adelaide International Airport

Public forecast

Using degrees Celsius for public forecast. Weather courtesy of forecast.io.

Current aviation weather report (METAR) for Adelaide International Airport

Retrieved 2022/05/28 07:30 UTC (19 minutes ago):

YPAD 280730Z 24007KT 9999 FEW030 BKN061 15/10 Q1013

Aviation forecast (TAF) for Adelaide International Airport

Retrieved 2022-05-28 04:10 UTC (4 hours ago):

TAF YPAD 280357Z 2804/2906 26014KT 9999 -SHRA SCT010 BKN025 FM280900 24010KT 9999 -SHRA SCT015 BKN025 FM281200 VRB03KT 9999 NSW FEW010 SCT020 FM281600 04005KT 9999 FEW005 SCT030 FM290200 36013KT 9999 SCT030 INTER 2804/2809 3000 SHRA BKN010 FEW020TCU